sensor_id;sensor_type;location;lat;lon;timestamp;temperature;humidity
59148;DHT22;44930;52.878;6.168;2023-04-24T00:01:51;10.90;99.90
59148;DHT22;44930;52.878;6.168;2023-04-24T00:04:17;10.80;99.90
59148;DHT22;44930;52.878;6.168;2023-04-24T00:06:43;11.00;99.90
59148;DHT22;44930;52.878;6.168;2023-04-24T00:09:09;10.70;99.90
59148;DHT22;44930;52.878;6.168;2023-04-24T00:11:36;10.80;99.90
59148;DHT22;44930;52.878;6.168;2023-04-24T00:14:02;10.70;99.90
59148;DHT22;44930;52.878;6.168;2023-04-24T00:16:28;10.60;99.90
59148;DHT22;44930;52.878;6.168;2023-04-24T00:18:53;10.70;99.90
59148;DHT22;44930;52.878;6.168;2023-04-24T00:21:19;10.60;99.90
59148;DHT22;44930;52.878;6.168;2023-04-24T00:23:46;10.70;99.90
59148;DHT22;44930;52.878;6.168;2023-04-24T00:26:11;10.60;99.90
59148;DHT22;44930;52.878;6.168;2023-04-24T00:28:37;10.70;99.90
59148;DHT22;44930;52.878;6.168;2023-04-24T00:31:02;10.70;99.90
59148;DHT22;44930;52.878;6.168;2023-04-24T00:33:28;10.80;99.90
59148;DHT22;44930;52.878;6.168;2023-04-24T00:35:54;10.50;99.90
59148;DHT22;44930;52.878;6.168;2023-04-24T00:38:19;10.50;99.90
59148;DHT22;44930;52.878;6.168;2023-04-24T00:40:45;10.50;99.90
59148;DHT22;44930;52.878;6.168;2023-04-24T00:43:11;10.70;99.90
59148;DHT22;44930;52.878;6.168;2023-04-24T00:45:37;10.50;99.90
59148;DHT22;44930;52.878;6.168;2023-04-24T00:48:03;10.50;99.90
59148;DHT22;44930;52.878;6.168;2023-04-24T00:50:29;10.60;99.90
59148;DHT22;44930;52.878;6.168;2023-04-24T00:52:57;10.90;99.90
59148;DHT22;44930;52.878;6.168;2023-04-24T00:55:22;10.50;99.90
59148;DHT22;44930;52.878;6.168;2023-04-24T00:57:48;10.60;99.90
59148;DHT22;44930;52.878;6.168;2023-04-24T01:02:43;10.40;99.90
59148;DHT22;44930;52.878;6.168;2023-04-24T01:05:14;10.50;99.90
59148;DHT22;44930;52.878;6.168;2023-04-24T01:07:41;10.60;99.90
59148;DHT22;44930;52.878;6.168;2023-04-24T01:10:09;10.40;99.90
59148;DHT22;44930;52.878;6.168;2023-04-24T01:12:35;10.40;99.90
59148;DHT22;44930;52.878;6.168;2023-04-24T01:15:01;10.50;99.90
59148;DHT22;44930;52.878;6.168;2023-04-24T01:17:26;10.40;99.90
59148;DHT22;44930;52.878;6.168;2023-04-24T01:19:52;10.20;99.90
59148;DHT22;44930;52.878;6.168;2023-04-24T01:22:22;10.40;99.90
59148;DHT22;44930;52.878;6.168;2023-04-24T01:24:48;10.30;99.90
59148;DHT22;44930;52.878;6.168;2023-04-24T01:29:41;10.30;99.90
59148;DHT22;44930;52.878;6.168;2023-04-24T01:32:06;10.80;99.90
59148;DHT22;44930;52.878;6.168;2023-04-24T01:34:32;10.00;99.90
59148;DHT22;44930;52.878;6.168;2023-04-24T01:36:58;10.40;99.90
59148;DHT22;44930;52.878;6.168;2023-04-24T01:39:24;10.30;99.90
59148;DHT22;44930;52.878;6.168;2023-04-24T01:41:51;10.30;99.90
59148;DHT22;44930;52.878;6.168;2023-04-24T01:44:18;10.40;99.90
59148;DHT22;44930;52.878;6.168;2023-04-24T01:46:44;10.40;99.90
59148;DHT22;44930;52.878;6.168;2023-04-24T01:49:10;10.30;99.90
59148;DHT22;44930;52.878;6.168;2023-04-24T01:51:36;10.30;99.90
59148;DHT22;44930;52.878;6.168;2023-04-24T01:54:01;10.40;99.90
59148;DHT22;44930;52.878;6.168;2023-04-24T01:56:29;10.00;99.90
59148;DHT22;44930;52.878;6.168;2023-04-24T02:01:23;10.40;99.90
59148;DHT22;44930;52.878;6.168;2023-04-24T02:03:49;10.40;99.90
59148;DHT22;44930;52.878;6.168;2023-04-24T02:06:15;10.30;99.90
59148;DHT22;44930;52.878;6.168;2023-04-24T02:11:08;10.20;99.90
59148;DHT22;44930;52.878;6.168;2023-04-24T02:13:33;10.30;99.90
59148;DHT22;44930;52.878;6.168;2023-04-24T02:15:59;10.40;99.90
59148;DHT22;44930;52.878;6.168;2023-04-24T02:18:24;10.40;99.90
59148;DHT22;44930;52.878;6.168;2023-04-24T02:20:50;10.50;99.90
59148;DHT22;44930;52.878;6.168;2023-04-24T02:23:15;10.40;99.90
59148;DHT22;44930;52.878;6.168;2023-04-24T02:25:41;10.50;99.90
59148;DHT22;44930;52.878;6.168;2023-04-24T02:28:07;10.40;99.90
59148;DHT22;44930;52.878;6.168;2023-04-24T02:30:32;10.40;99.90
59148;DHT22;44930;52.878;6.168;2023-04-24T02:32:58;10.20;99.90
59148;DHT22;44930;52.878;6.168;2023-04-24T02:35:23;10.40;99.90
59148;DHT22;44930;52.878;6.168;2023-04-24T02:37:49;10.50;99.90
59148;DHT22;44930;52.878;6.168;2023-04-24T02:40:15;10.30;99.90
59148;DHT22;44930;52.878;6.168;2023-04-24T02:42:40;10.30;99.90
59148;DHT22;44930;52.878;6.168;2023-04-24T02:45:06;10.80;99.90
59148;DHT22;44930;52.878;6.168;2023-04-24T02:47:32;10.30;99.90
59148;DHT22;44930;52.878;6.168;2023-04-24T02:49:57;10.20;99.90
59148;DHT22;44930;52.878;6.168;2023-04-24T02:52:23;10.20;99.90
59148;DHT22;44930;52.878;6.168;2023-04-24T02:54:49;10.20;99.90
59148;DHT22;44930;52.878;6.168;2023-04-24T02:57:14;10.20;99.90
59148;DHT22;44930;52.878;6.168;2023-04-24T02:59:40;10.10;99.90
59148;DHT22;44930;52.878;6.168;2023-04-24T03:02:06;10.20;99.90
59148;DHT22;44930;52.878;6.168;2023-04-24T03:04:31;10.20;99.90
59148;DHT22;44930;52.878;6.168;2023-04-24T03:06:57;10.20;99.90
59148;DHT22;44930;52.878;6.168;2023-04-24T03:09:23;10.10;99.90
59148;DHT22;44930;52.878;6.168;2023-04-24T03:11:48;10.20;99.90
59148;DHT22;44930;52.878;6.168;2023-04-24T03:14:15;10.20;99.90
59148;DHT22;44930;52.878;6.168;2023-04-24T03:16:40;10.10;99.90
59148;DHT22;44930;52.878;6.168;2023-04-24T03:19:06;10.00;99.90
59148;DHT22;44930;52.878;6.168;2023-04-24T03:21:31;10.00;99.90
59148;DHT22;44930;52.878;6.168;2023-04-24T03:23:57;10.40;99.90
59148;DHT22;44930;52.878;6.168;2023-04-24T03:26:23;10.00;99.90
59148;DHT22;44930;52.878;6.168;2023-04-24T03:28:48;10.10;99.90
59148;DHT22;44930;52.878;6.168;2023-04-24T03:33:40;10.10;99.90
59148;DHT22;44930;52.878;6.168;2023-04-24T03:36:06;10.00;99.90
59148;DHT22;44930;52.878;6.168;2023-04-24T03:38:32;10.00;99.90
59148;DHT22;44930;52.878;6.168;2023-04-24T03:40:57;10.10;99.90
59148;DHT22;44930;52.878;6.168;2023-04-24T03:43:23;10.10;99.90
59148;DHT22;44930;52.878;6.168;2023-04-24T03:45:49;10.00;99.90
59148;DHT22;44930;52.878;6.168;2023-04-24T03:48:14;10.10;99.90
59148;DHT22;44930;52.878;6.168;2023-04-24T03:50:40;10.10;99.90
59148;DHT22;44930;52.878;6.168;2023-04-24T03:53:05;10.10;99.90
59148;DHT22;44930;52.878;6.168;2023-04-24T03:55:31;10.20;99.90
59148;DHT22;44930;52.878;6.168;2023-04-24T03:57:56;10.10;99.90
59148;DHT22;44930;52.878;6.168;2023-04-24T04:00:22;10.20;99.90
59148;DHT22;44930;52.878;6.168;2023-04-24T04:02:48;10.20;99.90
59148;DHT22;44930;52.878;6.168;2023-04-24T04:05:13;10.50;99.90
59148;DHT22;44930;52.878;6.168;2023-04-24T04:07:39;10.10;99.90
59148;DHT22;44930;52.878;6.168;2023-04-24T04:10:05;10.20;99.90
59148;DHT22;44930;52.878;6.168;2023-04-24T04:12:32;10.20;99.90
59148;DHT22;44930;52.878;6.168;2023-04-24T04:14:58;10.20;99.90
59148;DHT22;44930;52.878;6.168;2023-04-24T04:17:23;10.30;99.90
59148;DHT22;44930;52.878;6.168;2023-04-24T04:19:49;10.50;99.90
59148;DHT22;44930;52.878;6.168;2023-04-24T04:24:40;10.30;99.90
59148;DHT22;44930;52.878;6.168;2023-04-24T04:27:06;10.30;99.90
59148;DHT22;44930;52.878;6.168;2023-04-24T04:29:33;10.30;99.90
59148;DHT22;44930;52.878;6.168;2023-04-24T04:31:59;10.50;99.90
59148;DHT22;44930;52.878;6.168;2023-04-24T04:34:25;10.50;99.90
59148;DHT22;44930;52.878;6.168;2023-04-24T04:36:51;10.30;99.90
59148;DHT22;44930;52.878;6.168;2023-04-24T04:39:16;10.30;99.90
59148;DHT22;44930;52.878;6.168;2023-04-24T04:41:44;10.50;99.90
59148;DHT22;44930;52.878;6.168;2023-04-24T04:44:09;10.00;99.90
59148;DHT22;44930;52.878;6.168;2023-04-24T04:46:35;10.30;99.90
59148;DHT22;44930;52.878;6.168;2023-04-24T04:49:02;10.30;99.90
59148;DHT22;44930;52.878;6.168;2023-04-24T04:51:28;10.40;99.90
59148;DHT22;44930;52.878;6.168;2023-04-24T04:53:54;10.40;99.90
59148;DHT22;44930;52.878;6.168;2023-04-24T04:56:19;10.50;99.90
59148;DHT22;44930;52.878;6.168;2023-04-24T04:58:45;10.50;99.90
59148;DHT22;44930;52.878;6.168;2023-04-24T05:01:10;10.30;99.90
59148;DHT22;44930;52.878;6.168;2023-04-24T05:03:36;10.30;99.90
59148;DHT22;44930;52.878;6.168;2023-04-24T05:06:02;10.20;99.90
59148;DHT22;44930;52.878;6.168;2023-04-24T05:08:27;10.20;99.90
59148;DHT22;44930;52.878;6.168;2023-04-24T05:13:20;10.20;99.90
59148;DHT22;44930;52.878;6.168;2023-04-24T05:15:45;10.20;99.90
59148;DHT22;44930;52.878;6.168;2023-04-24T05:18:11;10.10;99.90
59148;DHT22;44930;52.878;6.168;2023-04-24T05:20:36;10.10;99.90
59148;DHT22;44930;52.878;6.168;2023-04-24T05:23:02;10.00;99.90
59148;DHT22;44930;52.878;6.168;2023-04-24T05:25:28;10.20;99.90
59148;DHT22;44930;52.878;6.168;2023-04-24T05:27:53;10.20;99.90
59148;DHT22;44930;52.878;6.168;2023-04-24T05:30:19;10.10;99.90
59148;DHT22;44930;52.878;6.168;2023-04-24T05:32:45;10.20;99.90
59148;DHT22;44930;52.878;6.168;2023-04-24T05:35:11;10.10;99.90
59148;DHT22;44930;52.878;6.168;2023-04-24T05:37:37;10.20;99.90
59148;DHT22;44930;52.878;6.168;2023-04-24T05:40:03;10.20;99.90
59148;DHT22;44930;52.878;6.168;2023-04-24T05:42:31;10.20;99.90
59148;DHT22;44930;52.878;6.168;2023-04-24T05:44:56;10.20;99.90
59148;DHT22;44930;52.878;6.168;2023-04-24T05:47:22;10.20;99.90
59148;DHT22;44930;52.878;6.168;2023-04-24T05:49:47;10.50;99.90
59148;DHT22;44930;52.878;6.168;2023-04-24T05:52:13;10.40;99.90
59148;DHT22;44930;52.878;6.168;2023-04-24T05:54:39;10.30;99.90
59148;DHT22;44930;52.878;6.168;2023-04-24T05:57:04;10.60;99.90
59148;DHT22;44930;52.878;6.168;2023-04-24T05:59:34;10.40;99.90
59148;DHT22;44930;52.878;6.168;2023-04-24T06:01:59;10.40;99.90
59148;DHT22;44930;52.878;6.168;2023-04-24T06:04:25;10.40;99.90
59148;DHT22;44930;52.878;6.168;2023-04-24T06:06:51;10.40;99.90
59148;DHT22;44930;52.878;6.168;2023-04-24T06:09:21;10.40;99.90
59148;DHT22;44930;52.878;6.168;2023-04-24T06:11:47;10.30;99.90
59148;DHT22;44930;52.878;6.168;2023-04-24T06:14:13;10.40;99.90
59148;DHT22;44930;52.878;6.168;2023-04-24T06:16:41;10.20;99.90
59148;DHT22;44930;52.878;6.168;2023-04-24T06:19:07;10.30;99.90
59148;DHT22;44930;52.878;6.168;2023-04-24T06:21:33;10.20;99.90
59148;DHT22;44930;52.878;6.168;2023-04-24T06:23:58;10.20;99.90
59148;DHT22;44930;52.878;6.168;2023-04-24T06:26:24;10.20;99.90
59148;DHT22;44930;52.878;6.168;2023-04-24T06:28:51;10.10;99.90
59148;DHT22;44930;52.878;6.168;2023-04-24T06:31:19;10.10;99.90
59148;DHT22;44930;52.878;6.168;2023-04-24T06:33:45;10.00;99.90
59148;DHT22;44930;52.878;6.168;2023-04-24T06:36:11;10.10;99.90
59148;DHT22;44930;52.878;6.168;2023-04-24T06:38:37;10.10;99.90
59148;DHT22;44930;52.878;6.168;2023-04-24T06:41:02;10.10;99.90
59148;DHT22;44930;52.878;6.168;2023-04-24T06:43:30;9.80;99.90
59148;DHT22;44930;52.878;6.168;2023-04-24T06:48:24;10.10;99.90
59148;DHT22;44930;52.878;6.168;2023-04-24T06:50:49;10.10;99.90
59148;DHT22;44930;52.878;6.168;2023-04-24T06:53:15;10.10;99.90
59148;DHT22;44930;52.878;6.168;2023-04-24T06:55:40;10.30;99.90
59148;DHT22;44930;52.878;6.168;2023-04-24T06:58:06;10.30;99.90
59148;DHT22;44930;52.878;6.168;2023-04-24T07:00:32;10.20;99.90
59148;DHT22;44930;52.878;6.168;2023-04-24T07:02:57;10.40;99.90
59148;DHT22;44930;52.878;6.168;2023-04-24T07:05:23;10.10;99.90
59148;DHT22;44930;52.878;6.168;2023-04-24T07:07:48;10.10;99.90
59148;DHT22;44930;52.878;6.168;2023-04-24T07:10:15;10.10;99.90
59148;DHT22;44930;52.878;6.168;2023-04-24T07:12:41;10.00;99.90
59148;DHT22;44930;52.878;6.168;2023-04-24T07:15:07;10.00;99.90
59148;DHT22;44930;52.878;6.168;2023-04-24T07:17:34;10.10;99.90
59148;DHT22;44930;52.878;6.168;2023-04-24T07:20:00;10.00;99.90
59148;DHT22;44930;52.878;6.168;2023-04-24T07:22:26;10.10;99.90
59148;DHT22;44930;52.878;6.168;2023-04-24T07:24:51;10.00;99.90
59148;DHT22;44930;52.878;6.168;2023-04-24T07:27:17;10.10;99.90
59148;DHT22;44930;52.878;6.168;2023-04-24T07:29:43;10.00;99.90
59148;DHT22;44930;52.878;6.168;2023-04-24T07:32:08;9.90;99.90
59148;DHT22;44930;52.878;6.168;2023-04-24T07:34:35;10.10;99.90
59148;DHT22;44930;52.878;6.168;2023-04-24T07:37:00;10.00;99.90
59148;DHT22;44930;52.878;6.168;2023-04-24T07:39:27;9.90;99.90
59148;DHT22;44930;52.878;6.168;2023-04-24T07:41:53;10.00;99.90
59148;DHT22;44930;52.878;6.168;2023-04-24T07:44:18;9.70;99.90
59148;DHT22;44930;52.878;6.168;2023-04-24T07:49:10;9.80;99.90
59148;DHT22;44930;52.878;6.168;2023-04-24T07:51:35;9.80;99.90
59148;DHT22;44930;52.878;6.168;2023-04-24T07:54:04;9.90;99.90
59148;DHT22;44930;52.878;6.168;2023-04-24T07:56:31;9.70;99.90
59148;DHT22;44930;52.878;6.168;2023-04-24T07:58:57;9.80;99.90
59148;DHT22;44930;52.878;6.168;2023-04-24T08:01:22;9.80;99.90
59148;DHT22;44930;52.878;6.168;2023-04-24T08:03:48;9.70;99.90
59148;DHT22;44930;52.878;6.168;2023-04-24T08:06:13;9.60;99.90
59148;DHT22;44930;52.878;6.168;2023-04-24T08:08:39;9.70;99.90
59148;DHT22;44930;52.878;6.168;2023-04-24T08:11:05;9.70;99.90
59148;DHT22;44930;52.878;6.168;2023-04-24T08:13:30;9.60;99.90
59148;DHT22;44930;52.878;6.168;2023-04-24T08:15:56;9.50;99.90
59148;DHT22;44930;52.878;6.168;2023-04-24T08:18:22;9.60;99.90
59148;DHT22;44930;52.878;6.168;2023-04-24T08:20:48;9.60;99.90
59148;DHT22;44930;52.878;6.168;2023-04-24T08:23:14;9.50;99.90
59148;DHT22;44930;52.878;6.168;2023-04-24T08:25:39;9.60;99.90
59148;DHT22;44930;52.878;6.168;2023-04-24T08:30:32;9.70;99.90
59148;DHT22;44930;52.878;6.168;2023-04-24T08:32:57;9.60;99.90
59148;DHT22;44930;52.878;6.168;2023-04-24T08:35:24;9.40;99.90
59148;DHT22;44930;52.878;6.168;2023-04-24T08:37:50;9.50;99.90
59148;DHT22;44930;52.878;6.168;2023-04-24T08:40:16;9.50;99.90
59148;DHT22;44930;52.878;6.168;2023-04-24T08:42:43;9.50;99.90
59148;DHT22;44930;52.878;6.168;2023-04-24T08:47:38;9.40;99.90
59148;DHT22;44930;52.878;6.168;2023-04-24T08:50:04;9.70;99.90
59148;DHT22;44930;52.878;6.168;2023-04-24T08:52:33;9.50;99.90
59148;DHT22;44930;52.878;6.168;2023-04-24T08:55:00;9.40;99.90
59148;DHT22;44930;52.878;6.168;2023-04-24T08:57:26;9.50;99.90
59148;DHT22;44930;52.878;6.168;2023-04-24T08:59:53;9.40;99.90
59148;DHT22;44930;52.878;6.168;2023-04-24T09:02:21;9.50;99.90
59148;DHT22;44930;52.878;6.168;2023-04-24T09:04:47;9.70;99.90
59148;DHT22;44930;52.878;6.168;2023-04-24T09:07:14;9.70;99.90
59148;DHT22;44930;52.878;6.168;2023-04-24T09:09:42;9.50;99.90
59148;DHT22;44930;52.878;6.168;2023-04-24T09:12:08;9.70;99.90
59148;DHT22;44930;52.878;6.168;2023-04-24T09:14:35;9.60;99.90
59148;DHT22;44930;52.878;6.168;2023-04-24T09:17:05;9.70;99.90
59148;DHT22;44930;52.878;6.168;2023-04-24T09:19:31;9.60;99.90
59148;DHT22;44930;52.878;6.168;2023-04-24T09:21:57;9.80;99.90
59148;DHT22;44930;52.878;6.168;2023-04-24T09:24:22;9.50;99.90
59148;DHT22;44930;52.878;6.168;2023-04-24T09:26:49;9.80;99.90
59148;DHT22;44930;52.878;6.168;2023-04-24T09:29:21;10.00;99.90
59148;DHT22;44930;52.878;6.168;2023-04-24T09:34:12;10.20;99.90
59148;DHT22;44930;52.878;6.168;2023-04-24T09:36:40;10.00;99.90
59148;DHT22;44930;52.878;6.168;2023-04-24T09:39:09;10.20;99.90
59148;DHT22;44930;52.878;6.168;2023-04-24T09:41:51;10.20;99.90
59148;DHT22;44930;52.878;6.168;2023-04-24T09:44:25;10.10;99.90
59148;DHT22;44930;52.878;6.168;2023-04-24T09:46:53;10.10;99.90
59148;DHT22;44930;52.878;6.168;2023-04-24T09:54:18;10.00;99.90
59148;DHT22;44930;52.878;6.168;2023-04-24T09:56:47;9.90;99.90
59148;DHT22;44930;52.878;6.168;2023-04-24T09:59:14;9.70;99.90
59148;DHT22;44930;52.878;6.168;2023-04-24T10:01:40;9.80;99.90
59148;DHT22;44930;52.878;6.168;2023-04-24T10:04:16;9.80;99.90
59148;DHT22;44930;52.878;6.168;2023-04-24T10:06:43;9.60;99.90
59148;DHT22;44930;52.878;6.168;2023-04-24T10:09:08;9.70;99.90
59148;DHT22;44930;52.878;6.168;2023-04-24T10:11:37;9.60;99.90
59148;DHT22;44930;52.878;6.168;2023-04-24T10:14:03;9.80;99.90
59148;DHT22;44930;52.878;6.168;2023-04-24T10:16:29;9.80;99.90
59148;DHT22;44930;52.878;6.168;2023-04-24T10:18:59;9.80;99.90
59148;DHT22;44930;52.878;6.168;2023-04-24T10:21:26;9.80;99.90
59148;DHT22;44930;52.878;6.168;2023-04-24T10:23:52;9.80;99.90
59148;DHT22;44930;52.878;6.168;2023-04-24T10:26:19;9.90;99.90
59148;DHT22;44930;52.878;6.168;2023-04-24T10:28:46;10.00;99.90
59148;DHT22;44930;52.878;6.168;2023-04-24T10:31:13;10.10;99.90
59148;DHT22;44930;52.878;6.168;2023-04-24T10:33:41;10.10;99.90
59148;DHT22;44930;52.878;6.168;2023-04-24T10:36:09;10.30;99.90
59148;DHT22;44930;52.878;6.168;2023-04-24T10:41:10;10.10;99.90
59148;DHT22;44930;52.878;6.168;2023-04-24T10:43:41;10.10;99.90
59148;DHT22;44930;52.878;6.168;2023-04-24T10:46:07;9.90;99.90
59148;DHT22;44930;52.878;6.168;2023-04-24T10:48:34;9.90;99.90
59148;DHT22;44930;52.878;6.168;2023-04-24T10:50:59;9.80;99.90
59148;DHT22;44930;52.878;6.168;2023-04-24T10:53:29;9.70;99.90
59148;DHT22;44930;52.878;6.168;2023-04-24T10:56:06;9.60;99.90
59148;DHT22;44930;52.878;6.168;2023-04-24T10:58:41;9.80;99.90
59148;DHT22;44930;52.878;6.168;2023-04-24T11:01:23;9.90;99.90
59148;DHT22;44930;52.878;6.168;2023-04-24T11:03:51;9.90;99.90
59148;DHT22;44930;52.878;6.168;2023-04-24T11:06:29;10.10;99.90
59148;DHT22;44930;52.878;6.168;2023-04-24T11:11:29;10.10;99.90
59148;DHT22;44930;52.878;6.168;2023-04-24T11:16:29;10.20;99.90
59148;DHT22;44930;52.878;6.168;2023-04-24T11:24:39;10.20;99.90
59148;DHT22;44930;52.878;6.168;2023-04-24T11:30:05;10.30;99.90
59148;DHT22;44930;52.878;6.168;2023-04-24T11:32:31;10.00;99.90
59148;DHT22;44930;52.878;6.168;2023-04-24T11:40:11;10.20;99.90
59148;DHT22;44930;52.878;6.168;2023-04-24T11:42:38;10.20;99.90
59148;DHT22;44930;52.878;6.168;2023-04-24T11:45:16;10.20;99.90
59148;DHT22;44930;52.878;6.168;2023-04-24T11:47:42;10.30;99.90
59148;DHT22;44930;52.878;6.168;2023-04-24T11:50:11;10.40;99.90
59148;DHT22;44930;52.878;6.168;2023-04-24T11:52:42;10.30;99.90
59148;DHT22;44930;52.878;6.168;2023-04-24T11:57:41;10.50;99.90
59148;DHT22;44930;52.878;6.168;2023-04-24T12:00:15;10.40;99.90
59148;DHT22;44930;52.878;6.168;2023-04-24T12:02:41;10.40;99.90
59148;DHT22;44930;52.878;6.168;2023-04-24T12:05:07;10.40;99.90
59148;DHT22;44930;52.878;6.168;2023-04-24T12:07:41;10.30;99.90
59148;DHT22;44930;52.878;6.168;2023-04-24T12:10:09;10.40;99.90
59148;DHT22;44930;52.878;6.168;2023-04-24T12:12:35;10.40;99.90
59148;DHT22;44930;52.878;6.168;2023-04-24T12:15:05;10.40;99.90
59148;DHT22;44930;52.878;6.168;2023-04-24T12:17:32;10.60;99.90
59148;DHT22;44930;52.878;6.168;2023-04-24T12:20:06;10.70;99.90
59148;DHT22;44930;52.878;6.168;2023-04-24T12:22:51;10.60;99.90
59148;DHT22;44930;52.878;6.168;2023-04-24T12:25:20;10.70;99.90
59148;DHT22;44930;52.878;6.168;2023-04-24T12:30:15;10.70;99.90
59148;DHT22;44930;52.878;6.168;2023-04-24T12:32:42;10.40;99.90
59148;DHT22;44930;52.878;6.168;2023-04-24T12:35:08;10.30;99.90
59148;DHT22;44930;52.878;6.168;2023-04-24T12:37:34;10.00;99.90
59148;DHT22;44930;52.878;6.168;2023-04-24T12:40:07;10.00;99.90
59148;DHT22;44930;52.878;6.168;2023-04-24T12:42:34;9.90;99.90
59148;DHT22;44930;52.878;6.168;2023-04-24T12:45:06;9.90;99.90
59148;DHT22;44930;52.878;6.168;2023-04-24T12:47:34;10.30;99.90
59148;DHT22;44930;52.878;6.168;2023-04-24T12:50:00;10.00;99.90
59148;DHT22;44930;52.878;6.168;2023-04-24T12:52:28;10.10;99.90
59148;DHT22;44930;52.878;6.168;2023-04-24T12:54:59;9.90;99.90
59148;DHT22;44930;52.878;6.168;2023-04-24T12:57:26;10.20;99.90
59148;DHT22;44930;52.878;6.168;2023-04-24T12:59:56;10.40;99.90
59148;DHT22;44930;52.878;6.168;2023-04-24T13:02:23;10.30;99.90
59148;DHT22;44930;52.878;6.168;2023-04-24T13:04:50;10.30;99.90
59148;DHT22;44930;52.878;6.168;2023-04-24T13:07:16;10.50;99.90
59148;DHT22;44930;52.878;6.168;2023-04-24T13:09:43;10.50;99.90
59148;DHT22;44930;52.878;6.168;2023-04-24T13:12:09;10.30;99.90
59148;DHT22;44930;52.878;6.168;2023-04-24T13:14:35;10.20;99.90
59148;DHT22;44930;52.878;6.168;2023-04-24T13:17:01;9.90;99.90
59148;DHT22;44930;52.878;6.168;2023-04-24T13:19:28;9.90;99.90
59148;DHT22;44930;52.878;6.168;2023-04-24T13:21:55;9.90;99.90
59148;DHT22;44930;52.878;6.168;2023-04-24T13:26:52;9.70;99.90
59148;DHT22;44930;52.878;6.168;2023-04-24T13:29:17;9.60;99.90
59148;DHT22;44930;52.878;6.168;2023-04-24T13:31:43;9.50;99.90
59148;DHT22;44930;52.878;6.168;2023-04-24T13:34:09;9.60;99.90
59148;DHT22;44930;52.878;6.168;2023-04-24T13:36:34;9.70;99.90
59148;DHT22;44930;52.878;6.168;2023-04-24T13:39:00;9.50;99.90
59148;DHT22;44930;52.878;6.168;2023-04-24T13:41:26;9.70;99.90
59148;DHT22;44930;52.878;6.168;2023-04-24T13:43:52;9.70;99.90
59148;DHT22;44930;52.878;6.168;2023-04-24T13:46:17;9.90;99.90
59148;DHT22;44930;52.878;6.168;2023-04-24T13:48:43;10.00;99.90
59148;DHT22;44930;52.878;6.168;2023-04-24T13:53:35;10.10;99.90
59148;DHT22;44930;52.878;6.168;2023-04-24T13:56:03;9.90;99.90
59148;DHT22;44930;52.878;6.168;2023-04-24T13:58:29;10.00;99.90
59148;DHT22;44930;52.878;6.168;2023-04-24T14:00:55;10.00;99.90
59148;DHT22;44930;52.878;6.168;2023-04-24T14:03:20;10.20;99.90
59148;DHT22;44930;52.878;6.168;2023-04-24T14:05:46;10.00;99.90
59148;DHT22;44930;52.878;6.168;2023-04-24T14:08:11;10.00;99.90
59148;DHT22;44930;52.878;6.168;2023-04-24T14:10:37;10.10;99.90
59148;DHT22;44930;52.878;6.168;2023-04-24T14:13:03;10.10;99.90
59148;DHT22;44930;52.878;6.168;2023-04-24T14:15:28;9.90;99.90
59148;DHT22;44930;52.878;6.168;2023-04-24T14:17:54;10.00;99.90
59148;DHT22;44930;52.878;6.168;2023-04-24T14:20:19;10.20;99.90
59148;DHT22;44930;52.878;6.168;2023-04-24T14:25:11;10.10;99.90
59148;DHT22;44930;52.878;6.168;2023-04-24T14:27:37;10.20;99.90
59148;DHT22;44930;52.878;6.168;2023-04-24T14:30:03;10.20;99.90
59148;DHT22;44930;52.878;6.168;2023-04-24T14:32:29;10.30;99.90
59148;DHT22;44930;52.878;6.168;2023-04-24T14:34:55;10.30;99.90
59148;DHT22;44930;52.878;6.168;2023-04-24T14:37:20;10.30;99.90
59148;DHT22;44930;52.878;6.168;2023-04-24T14:42:12;10.30;99.90
59148;DHT22;44930;52.878;6.168;2023-04-24T14:44:38;10.40;99.90
59148;DHT22;44930;52.878;6.168;2023-04-24T14:49:30;10.10;99.90
59148;DHT22;44930;52.878;6.168;2023-04-24T14:51:56;10.20;99.90
59148;DHT22;44930;52.878;6.168;2023-04-24T14:54:22;10.20;99.90
59148;DHT22;44930;52.878;6.168;2023-04-24T14:56:49;10.40;99.90
59148;DHT22;44930;52.878;6.168;2023-04-24T14:59:14;10.30;99.90
59148;DHT22;44930;52.878;6.168;2023-04-24T15:01:40;10.30;99.90
59148;DHT22;44930;52.878;6.168;2023-04-24T15:04:05;10.30;99.90
59148;DHT22;44930;52.878;6.168;2023-04-24T15:06:31;10.40;99.90
59148;DHT22;44930;52.878;6.168;2023-04-24T15:08:57;10.20;99.90
59148;DHT22;44930;52.878;6.168;2023-04-24T15:13:49;10.00;99.90
59148;DHT22;44930;52.878;6.168;2023-04-24T15:18:41;9.80;99.90
59148;DHT22;44930;52.878;6.168;2023-04-24T15:21:07;9.80;99.90
59148;DHT22;44930;52.878;6.168;2023-04-24T15:23:33;9.80;99.90
59148;DHT22;44930;52.878;6.168;2023-04-24T15:25:58;9.80;99.90
59148;DHT22;44930;52.878;6.168;2023-04-24T15:30:53;9.70;99.90
59148;DHT22;44930;52.878;6.168;2023-04-24T15:33:18;9.70;99.90
59148;DHT22;44930;52.878;6.168;2023-04-24T15:35:44;9.70;99.90
59148;DHT22;44930;52.878;6.168;2023-04-24T15:38:10;9.80;99.90
59148;DHT22;44930;52.878;6.168;2023-04-24T15:40:36;9.60;99.90
59148;DHT22;44930;52.878;6.168;2023-04-24T15:43:02;9.50;99.90
59148;DHT22;44930;52.878;6.168;2023-04-24T15:45:28;9.70;99.90
59148;DHT22;44930;52.878;6.168;2023-04-24T15:47:53;9.80;99.90
59148;DHT22;44930;52.878;6.168;2023-04-24T15:52:46;9.50;99.90
59148;DHT22;44930;52.878;6.168;2023-04-24T15:55:12;9.50;99.90
59148;DHT22;44930;52.878;6.168;2023-04-24T15:57:38;9.50;99.90
59148;DHT22;44930;52.878;6.168;2023-04-24T16:00:05;9.60;99.90
59148;DHT22;44930;52.878;6.168;2023-04-24T16:02:33;9.60;99.90
59148;DHT22;44930;52.878;6.168;2023-04-24T16:04:58;9.70;99.90
59148;DHT22;44930;52.878;6.168;2023-04-24T16:07:24;9.50;99.90
59148;DHT22;44930;52.878;6.168;2023-04-24T16:09:50;9.60;99.90
59148;DHT22;44930;52.878;6.168;2023-04-24T16:12:15;9.70;99.90
59148;DHT22;44930;52.878;6.168;2023-04-24T16:14:41;9.60;99.90
59148;DHT22;44930;52.878;6.168;2023-04-24T16:17:07;9.70;99.90
59148;DHT22;44930;52.878;6.168;2023-04-24T16:19:32;9.90;99.90
59148;DHT22;44930;52.878;6.168;2023-04-24T16:21:59;9.70;99.90
59148;DHT22;44930;52.878;6.168;2023-04-24T16:24:25;9.50;99.90
59148;DHT22;44930;52.878;6.168;2023-04-24T16:26:51;9.60;99.90
59148;DHT22;44930;52.878;6.168;2023-04-24T16:29:18;9.50;99.90
59148;DHT22;44930;52.878;6.168;2023-04-24T16:31:43;9.40;99.90
59148;DHT22;44930;52.878;6.168;2023-04-24T16:34:09;9.40;99.90
59148;DHT22;44930;52.878;6.168;2023-04-24T16:36:35;9.40;99.90
59148;DHT22;44930;52.878;6.168;2023-04-24T16:39:01;9.40;99.90
59148;DHT22;44930;52.878;6.168;2023-04-24T16:41:29;9.40;99.90
59148;DHT22;44930;52.878;6.168;2023-04-24T16:46:21;9.30;99.90
59148;DHT22;44930;52.878;6.168;2023-04-24T16:48:46;9.30;99.90
59148;DHT22;44930;52.878;6.168;2023-04-24T16:51:12;9.20;99.90
59148;DHT22;44930;52.878;6.168;2023-04-24T16:53:38;9.40;99.90
59148;DHT22;44930;52.878;6.168;2023-04-24T16:56:03;9.20;99.90